Time;durP1;ratioP1;P1;durP2;ratioP2;P2;SDS_P1;SDS_P2;PMS_P1;PMS_P2;Temp;Humidity;BMP_temperature;BMP_pressure;BME280_temperature;BME280_humidity;BME280_pressure;Samples;Min_cycle;Max_cycle;Signal;HPM_P1;HPM_P2
2021/03/05 06:00:51;;;;;;;;;;;;;;;;;;5085027;28;20361;-49
2021/03/05 06:03:19;;;;;;;0.20;0.20;;;;;;;;;;5072881;28;19966;-49
2021/03/05 06:05:45;;;;;;;3.65;1.55;;;;;;;;;;5072667;28;20036;-50
2021/03/05 06:08:11;;;;;;;1.45;0.40;;;;;;;;;;5073220;28;20482;-48
2021/03/05 06:10:37;;;;;;;0.20;0.20;;;;;;;;;;5079405;28;20512;-49
2021/03/05 06:13:03;;;;;;;9.73;1.85;;;;;;;;;;5084632;28;20029;-47
2021/03/05 06:15:30;;;;;;;1.38;0.65;;;;;;;;;;5087269;28;20052;-50
2021/03/05 06:17:56;;;;;;;0.10;0.10;;;;;;;;;;5082349;28;20020;-47
2021/03/05 06:20:22;;;;;;;1.65;0.60;;;;;;;;;;5075777;28;20178;-49
2021/03/05 06:23:05;;;;;;;0.60;0.32;;;;;;;;;;5073004;28;20020;-49
2021/03/05 06:25:37;;;;;;;1.48;0.95;;;;;;;;;;5075061;28;20390;-49
2021/03/05 06:28:13;;;;;;;0.15;0.15;;;;;;;;;;5069785;28;20025;-49
2021/03/05 06:30:40;;;;;;;0.88;0.52;;;;;;;;;;5070123;28;20502;-51
2021/03/05 06:33:21;;;;;;;0.17;0.17;;;;;;;;;;5072216;28;20033;-50
2021/03/05 06:35:47;;;;;;;1.35;0.75;;;;;;;;;;5071978;28;20513;-48
2021/03/05 06:38:33;;;;;;;0.35;0.35;;;;;;;;;;5072496;28;20126;-54
2021/03/05 06:41:14;;;;;;;0.10;0.10;;;;;;;;;;5072255;28;20021;-52
2021/03/05 06:43:44;;;;;;;4.22;0.85;;;;;;;;;;5080156;28;20020;-50
2021/03/05 06:46:29;;;;;;;0.50;0.50;;;;;;;;;;5083503;28;20482;-52
2021/03/05 06:48:56;;;;;;;1.17;0.40;;;;;;;;;;5083711;28;20033;-52
2021/03/05 06:51:22;;;;;;;0.20;0.20;;;;;;;;;;5085524;28;20446;-49
2021/03/05 06:53:48;;;;;;;0.50;0.50;;;;;;;;;;5083514;28;20064;-53
2021/03/05 06:56:27;;;;;;;0.10;0.10;;;;;;;;;;5077017;28;20085;-48
2021/03/05 06:58:59;;;;;;;1.95;1.75;;;;;;;;;;5075272;28;20048;-50
2021/03/05 07:01:25;;;;;;;5.15;0.70;;;;;;;;;;5072585;28;20498;-51
2021/03/05 07:04:11;;;;;;;1.52;1.45;;;;;;;;;;5070667;28;20040;-49
2021/03/05 07:06:37;;;;;;;;;;;;;;;;;;5072056;28;20469;-48
2021/03/05 07:09:04;;;;;;;0.30;0.30;;;;;;;;;;5071543;28;20343;-49
2021/03/05 07:11:32;;;;;;;1.38;1.27;;;;;;;;;;5067737;28;20048;-49
2021/03/05 07:13:58;;;;;;;0.20;0.20;;;;;;;;;;5069399;28;20056;-46
2021/03/05 07:16:24;;;;;;;1.13;1.02;;;;;;;;;;5069418;28;20028;-50
2021/03/05 07:18:50;;;;;;;2.15;1.48;;;;;;;;;;5071259;28;20040;-47
2021/03/05 07:21:18;;;;;;;0.22;0.22;;;;;;;;;;5072489;28;20022;-52
2021/03/05 07:23:45;;;;;;;0.22;0.20;;;;;;;;;;5071038;28;20098;-50
2021/03/05 07:26:11;;;;;;;0.60;0.60;;;;;;;;;;5069462;28;20028;-52
2021/03/05 07:28:41;;;;;;;1.33;1.23;;;;;;;;;;5069132;28;20032;-53
2021/03/05 07:31:07;;;;;;;0.73;0.57;;;;;;;;;;5069204;28;20021;-57
2021/03/05 07:33:37;;;;;;;2.03;1.83;;;;;;;;;;5071289;28;20481;-55
2021/03/05 07:36:04;;;;;;;0.40;0.40;;;;;;;;;;5073045;28;20107;-57
2021/03/05 07:38:34;;;;;;;0.20;0.20;;;;;;;;;;5069568;28;20024;-49
2021/03/05 07:41:02;;;;;;;0.63;0.57;;;;;;;;;;5069937;28;20135;-50
2021/03/05 07:43:29;;;;;;;0.88;0.85;;;;;;;;;;5069925;28;20021;-48
2021/03/05 07:45:55;;;;;;;0.20;0.20;;;;;;;;;;5069828;28;20024;-50
2021/03/05 07:48:22;;;;;;;0.13;0.13;;;;;;;;;;5072553;28;20037;-47
2021/03/05 07:50:48;;;;;;;2.83;0.40;;;;;;;;;;5071091;28;20684;-49
2021/03/05 07:53:14;;;;;;;0.82;0.52;;;;;;;;;;5069451;28;20509;-47
2021/03/05 07:55:41;;;;;;;0.95;0.50;;;;;;;;;;5069464;28;20370;-48
2021/03/05 07:58:07;;;;;;;1.20;0.80;;;;;;;;;;5068718;28;20025;-49
2021/03/05 08:00:47;;;;;;;0.30;0.30;;;;;;;;;;5071280;28;20513;-50
2021/03/05 08:03:14;;;;;;;2.50;1.55;;;;;;;;;;5071753;28;20048;-50
2021/03/05 08:05:41;;;;;;;2.20;0.93;;;;;;;;;;5069447;28;20033;-52
2021/03/05 08:08:20;;;;;;;4.53;1.40;;;;;;;;;;5070583;28;20454;-51
2021/03/05 08:10:48;;;;;;;2.17;1.27;;;;;;;;;;5068867;28;20032;-56
2021/03/05 08:16:31;;;;;;;0.10;0.10;;;;;;;;;;5062071;28;20518;-48
2021/03/05 08:19:17;;;;;;;0.40;0.40;;;;;;;;;;5053352;28;20020;-49
2021/03/05 08:21:49;;;;;;;6.85;2.30;;;;;;;;;;5046138;28;20045;-48
2021/03/05 08:24:21;;;;;;;8.70;1.52;;;;;;;;;;5069180;28;20031;-47
2021/03/05 08:27:04;;;;;;;10.63;2.65;;;;;;;;;;5068604;28;20046;-49
2021/03/05 08:29:50;;;;;;;0.13;0.13;;;;;;;;;;5068722;28;20402;-49
2021/03/05 08:32:34;;;;;;;6.88;3.17;;;;;;;;;;5068544;28;20489;-47
2021/03/05 08:35:11;;;;;;;6.25;1.38;;;;;;;;;;5068316;28;20021;-49
2021/03/05 08:37:38;;;;;;;4.88;2.20;;;;;;;;;;5068177;28;20502;-47
2021/03/05 08:40:14;;;;;;;0.57;0.57;;;;;;;;;;5068785;28;20017;-47
2021/03/05 08:42:43;;;;;;;11.95;2.88;;;;;;;;;;5070550;28;20036;-47
2021/03/05 08:45:09;;;;;;;2.17;2.03;;;;;;;;;;5069970;28;20029;-48
2021/03/05 08:47:36;;;;;;;5.28;1.70;;;;;;;;;;5066988;28;20496;-46
2021/03/05 08:50:04;;;;;;;2.17;1.20;;;;;;;;;;5068248;28;20077;-49
2021/03/05 08:52:30;;;;;;;5.68;1.45;;;;;;;;;;5065615;28;20091;-49
2021/03/05 08:54:57;;;;;;;5.07;2.03;;;;;;;;;;5068124;28;20497;-48
2021/03/05 08:57:23;;;;;;;13.60;2.95;;;;;;;;;;5071356;28;20033;-47
2021/03/05 08:59:51;;;;;;;1.50;1.40;;;;;;;;;;5067824;28;20138;-51
2021/03/05 09:02:17;;;;;;;9.27;2.05;;;;;;;;;;5066754;28;20039;-47
2021/03/05 09:04:44;;;;;;;10.90;2.30;;;;;;;;;;5067744;28;20537;-47
2021/03/05 09:07:13;;;;;;;4.18;1.20;;;;;;;;;;5069420;28;20035;-48
2021/03/05 09:09:40;;;;;;;1.00;0.73;;;;;;;;;;5069537;28;20102;-48
2021/03/05 09:12:15;;;;;;;3.60;1.58;;;;;;;;;;5070865;28;20029;-48
2021/03/05 09:14:42;;;;;;;0.47;0.47;;;;;;;;;;5067361;28;20816;-48
2021/03/05 09:17:09;;;;;;;3.35;1.75;;;;;;;;;;5067568;28;20024;-48
2021/03/05 09:19:41;;;;;;;1.73;1.20;;;;;;;;;;5066605;28;20072;-47
2021/03/05 09:22:07;;;;;;;2.70;1.48;;;;;;;;;;5068061;28;20056;-47
2021/03/05 09:24:49;;;;;;;4.82;2.58;;;;;;;;;;5069682;28;20036;-46
2021/03/05 09:27:15;;;;;;;5.00;1.13;;;;;;;;;;5070362;28;20066;-50
2021/03/05 09:29:41;;;;;;;0.22;0.22;;;;;;;;;;5067297;28;20033;-48
2021/03/05 09:32:08;;;;;;;1.30;0.68;;;;;;;;;;5067792;28;20128;-49
2021/03/05 09:34:34;;;;;;;1.45;0.85;;;;;;;;;;5067796;28;20037;-49
2021/03/05 09:37:00;;;;;;;0.80;0.63;;;;;;;;;;5066649;28;20112;-48
2021/03/05 09:39:26;;;;;;;0.22;0.22;;;;;;;;;;5070819;28;20024;-48
2021/03/05 09:41:52;;;;;;;8.10;2.28;;;;;;;;;;5067800;28;20442;-49
2021/03/05 09:44:18;;;;;;;5.90;1.17;;;;;;;;;;5067376;28;20036;-49
2021/03/05 09:46:44;;;;;;;2.30;0.90;;;;;;;;;;5068946;28;20028;-51
2021/03/05 09:49:24;;;;;;;1.75;1.40;;;;;;;;;;5067658;28;20037;-50
2021/03/05 09:51:50;;;;;;;1.00;0.20;;;;;;;;;;5068311;28;20021;-50
2021/03/05 09:54:19;;;;;;;1.30;0.90;;;;;;;;;;5070359;28;20052;-54
2021/03/05 09:56:46;;;;;;;1.95;0.98;;;;;;;;;;5066671;28;20043;-61
2021/03/05 09:59:13;;;;;;;0.30;0.30;;;;;;;;;;5065807;28;20579;-51
2021/03/05 10:01:43;;;;;;;0.20;0.20;;;;;;;;;;5066896;28;20060;-54
2021/03/05 10:04:13;;;;;;;0.60;0.52;;;;;;;;;;5067408;28;20032;-51
2021/03/05 10:06:39;;;;;;;0.40;0.40;;;;;;;;;;5069521;28;20028;-49
2021/03/05 10:09:10;;;;;;;2.13;0.85;;;;;;;;;;5068577;28;20033;-48
2021/03/05 10:11:37;;;;;;;4.32;1.95;;;;;;;;;;5066341;28;20021;-49
2021/03/05 10:14:12;;;;;;;1.45;1.17;;;;;;;;;;5067275;28;20030;-50
2021/03/05 10:16:39;;;;;;;0.20;0.20;;;;;;;;;;5067268;28;20032;-49
2021/03/05 10:19:05;;;;;;;6.00;1.95;;;;;;;;;;5067398;28;20031;-49
2021/03/05 10:21:32;;;;;;;3.15;0.98;;;;;;;;;;5069148;28;20157;-48
2021/03/05 10:24:03;;;;;;;0.20;0.20;;;;;;;;;;5068248;28;20559;-50
2021/03/05 10:26:29;;;;;;;8.52;1.58;;;;;;;;;;5066971;28;20044;-48
2021/03/05 10:28:57;;;;;;;0.60;0.60;;;;;;;;;;5066682;28;20410;-46
2021/03/05 10:31:38;;;;;;;0.15;0.15;;;;;;;;;;5066577;28;20025;-47
2021/03/05 10:34:05;;;;;;;2.97;0.77;;;;;;;;;;5052520;28;20024;-47
2021/03/05 10:36:31;;;;;;;0.20;0.20;;;;;;;;;;5072138;28;20028;-46
2021/03/05 10:38:57;;;;;;;3.60;0.73;;;;;;;;;;5073107;28;20040;-48
2021/03/05 10:41:23;;;;;;;0.15;0.15;;;;;;;;;;5070410;28;20119;-50
2021/03/05 10:43:49;;;;;;;0.30;0.30;;;;;;;;;;5080548;28;20035;-47
2021/03/05 10:46:15;;;;;;;6.53;1.10;;;;;;;;;;5079477;28;20020;-47
2021/03/05 10:48:41;;;;;;;3.80;1.25;;;;;;;;;;5072493;28;20036;-46
2021/03/05 10:51:07;;;;;;;1.00;0.88;;;;;;;;;;5072171;28;20505;-50
2021/03/05 10:53:33;;;;;;;2.05;0.43;;;;;;;;;;5070722;28;20036;-48
2021/03/05 10:55:59;;;;;;;0.43;0.43;;;;;;;;;;5069728;28;20509;-47
2021/03/05 10:58:25;;;;;;;2.00;0.77;;;;;;;;;;5070008;28;20115;-51
2021/03/05 11:00:52;;;;;;;7.72;2.05;;;;;;;;;;5071121;28;20037;-47
2021/03/05 11:03:18;;;;;;;3.35;1.30;;;;;;;;;;5073210;28;20031;-50
2021/03/05 11:05:44;;;;;;;0.85;0.45;;;;;;;;;;5070333;28;20067;-49
2021/03/05 11:08:10;;;;;;;1.10;1.00;;;;;;;;;;5070531;28;20054;-48
2021/03/05 11:10:36;;;;;;;2.53;0.73;;;;;;;;;;5069978;28;20036;-51
2021/03/05 11:13:03;;;;;;;3.17;1.85;;;;;;;;;;5069994;28;20502;-51
2021/03/05 11:15:29;;;;;;;1.10;0.98;;;;;;;;;;5072604;28;20107;-47
2021/03/05 11:17:55;;;;;;;3.42;1.75;;;;;;;;;;5072861;28;20036;-50
2021/03/05 11:20:21;;;;;;;1.63;1.52;;;;;;;;;;5071012;28;20032;-51
2021/03/05 11:22:47;;;;;;;1.58;0.88;;;;;;;;;;5069901;28;20024;-48
2021/03/05 11:25:14;;;;;;;0.63;0.60;;;;;;;;;;5069675;28;20029;-51
2021/03/05 11:27:40;;;;;;;6.55;1.85;;;;;;;;;;5072049;28;20032;-54
2021/03/05 11:30:06;;;;;;;0.63;0.63;;;;;;;;;;5070266;28;20036;-51
2021/03/05 11:32:34;;;;;;;2.53;1.42;;;;;;;;;;5070117;28;20401;-50
2021/03/05 11:35:00;;;;;;;1.10;1.02;;;;;;;;;;5069840;28;20024;-52
2021/03/05 11:37:28;;;;;;;1.23;0.80;;;;;;;;;;5079797;28;20078;-52
2021/03/05 11:39:54;;;;;;;0.28;0.28;;;;;;;;;;5078718;28;20593;-48
2021/03/05 11:42:20;;;;;;;1.35;0.93;;;;;;;;;;5083953;28;20047;-51
2021/03/05 11:44:46;;;;;;;0.90;0.90;;;;;;;;;;5080530;28;20085;-53
2021/03/05 11:47:12;;;;;;;7.53;0.52;;;;;;;;;;5080669;28;20430;-52
2021/03/05 11:49:39;;;;;;;0.90;0.90;;;;;;;;;;5077705;28;20119;-48
2021/03/05 11:52:05;;;;;;;0.57;0.57;;;;;;;;;;5078156;28;20017;-53
2021/03/05 11:54:31;;;;;;;0.52;0.52;;;;;;;;;;5082709;28;20082;-51
2021/03/05 11:56:57;;;;;;;0.35;0.35;;;;;;;;;;5081881;28;20028;-51
2021/03/05 11:59:23;;;;;;;1.08;0.82;;;;;;;;;;5080211;28;20071;-51
2021/03/05 12:01:49;;;;;;;0.50;0.50;;;;;;;;;;5079697;28;20052;-52
2021/03/05 12:04:16;;;;;;;4.57;1.15;;;;;;;;;;5076910;28;20569;-51
2021/03/05 12:06:42;;;;;;;0.77;0.77;;;;;;;;;;5079615;28;20429;-50
2021/03/05 12:09:08;;;;;;;1.20;1.10;;;;;;;;;;5076960;28;20032;-51
2021/03/05 12:11:34;;;;;;;0.68;0.55;;;;;;;;;;5073977;28;20021;-50
2021/03/05 12:14:01;;;;;;;5.18;0.90;;;;;;;;;;5075508;28;20031;-55
2021/03/05 12:16:27;;;;;;;8.40;1.08;;;;;;;;;;5079519;28;20039;-48
2021/03/05 12:18:53;;;;;;;1.33;0.80;;;;;;;;;;5080995;28;20031;-50
2021/03/05 12:21:20;;;;;;;0.60;0.38;;;;;;;;;;5082824;28;20044;-51
2021/03/05 12:23:46;;;;;;;1.98;0.73;;;;;;;;;;5079124;28;20386;-49
2021/03/05 12:26:12;;;;;;;1.42;0.73;;;;;;;;;;5082469;28;20012;-49
2021/03/05 12:28:38;;;;;;;0.55;0.55;;;;;;;;;;5078384;28;20120;-49
2021/03/05 12:31:04;;;;;;;1.90;1.02;;;;;;;;;;5068927;28;20028;-46
2021/03/05 12:33:30;;;;;;;0.30;0.30;;;;;;;;;;5071459;28;20103;-51
2021/03/05 12:35:57;;;;;;;0.60;0.50;;;;;;;;;;5069567;28;20035;-48
2021/03/05 12:38:23;;;;;;;5.28;0.70;;;;;;;;;;5067868;28;20064;-49
2021/03/05 12:40:49;;;;;;;4.03;1.15;;;;;;;;;;5068752;28;20023;-49
2021/03/05 12:43:15;;;;;;;0.68;0.68;;;;;;;;;;5068748;28;20542;-48
2021/03/05 12:45:42;;;;;;;0.30;0.30;;;;;;;;;;5070287;28;20056;-50
2021/03/05 12:48:08;;;;;;;0.30;0.30;;;;;;;;;;5070013;28;20036;-50
2021/03/05 12:50:34;;;;;;;2.15;0.63;;;;;;;;;;5068455;28;20465;-51
2021/03/05 12:53:00;;;;;;;0.55;0.43;;;;;;;;;;5068023;28;20078;-47
2021/03/05 12:55:26;;;;;;;2.65;1.17;;;;;;;;;;5068121;28;20089;-47
2021/03/05 12:57:52;;;;;;;0.50;0.50;;;;;;;;;;5067254;28;20082;-48
2021/03/05 13:00:19;;;;;;;0.15;0.15;;;;;;;;;;5071004;28;20140;-48
2021/03/05 13:02:45;;;;;;;0.60;0.40;;;;;;;;;;5067843;28;20490;-53
2021/03/05 13:05:11;;;;;;;7.28;0.68;;;;;;;;;;5067953;28;20024;-47
2021/03/05 13:07:38;;;;;;;1.65;1.05;;;;;;;;;;5067374;28;20024;-47
2021/03/05 13:10:04;;;;;;;1.42;0.38;;;;;;;;;;5067679;28;20521;-47
2021/03/05 13:12:30;;;;;;;0.25;0.25;;;;;;;;;;5070664;28;20390;-46
2021/03/05 13:14:56;;;;;;;1.27;0.50;;;;;;;;;;5080420;28;20020;-50
2021/03/05 13:17:22;;;;;;;0.43;0.40;;;;;;;;;;5077981;28;20024;-49
2021/03/05 13:19:48;;;;;;;0.20;0.20;;;;;;;;;;5067017;28;20040;-48
2021/03/05 13:22:15;;;;;;;0.20;0.20;;;;;;;;;;5067516;28;20546;-48
2021/03/05 13:24:43;;;;;;;0.75;0.45;;;;;;;;;;5069678;28;20025;-48
2021/03/05 13:27:09;;;;;;;3.53;0.70;;;;;;;;;;5069212;28;20020;-49
2021/03/05 13:29:35;;;;;;;2.90;0.85;;;;;;;;;;5067650;28;20037;-50
2021/03/05 13:32:01;;;;;;;1.10;1.00;;;;;;;;;;5067919;28;20025;-49
2021/03/05 13:34:27;;;;;;;2.50;0.60;;;;;;;;;;5067155;28;20494;-46
2021/03/05 13:36:54;;;;;;;5.97;1.00;;;;;;;;;;5052077;28;20043;-48
2021/03/05 13:39:21;;;;;;;3.42;0.90;;;;;;;;;;5071117;28;20040;-52
2021/03/05 13:41:48;;;;;;;1.80;0.70;;;;;;;;;;5067725;28;20028;-50
2021/03/05 13:44:14;;;;;;;1.13;0.60;;;;;;;;;;5067792;28;20017;-47
2021/03/05 13:46:40;;;;;;;0.57;0.57;;;;;;;;;;5067647;28;20024;-48
2021/03/05 13:49:06;;;;;;;1.10;1.10;;;;;;;;;;5067237;28;20052;-46
2021/03/05 13:51:32;;;;;;;3.95;0.50;;;;;;;;;;5070253;28;20405;-51
2021/03/05 13:53:58;;;;;;;5.10;1.67;;;;;;;;;;5068409;28;20038;-50
2021/03/05 13:56:24;;;;;;;3.25;1.17;;;;;;;;;;5067121;28;20493;-49
2021/03/05 13:58:51;;;;;;;3.03;1.38;;;;;;;;;;5066628;28;20037;-49
2021/03/05 14:01:17;;;;;;;3.67;2.20;;;;;;;;;;5067224;28;20036;-46
2021/03/05 14:03:43;;;;;;;4.95;1.45;;;;;;;;;;5068643;28;20033;-50
2021/03/05 14:06:09;;;;;;;2.45;1.10;;;;;;;;;;5069178;28;20036;-47
2021/03/05 14:08:35;;;;;;;0.20;0.20;;;;;;;;;;5066777;28;20032;-49
2021/03/05 14:11:01;;;;;;;4.25;1.10;;;;;;;;;;5069179;28;20032;-48
2021/03/05 14:13:27;;;;;;;3.63;1.17;;;;;;;;;;5071464;28;20398;-48
2021/03/05 14:15:53;;;;;;;1.50;0.65;;;;;;;;;;5055737;28;20021;-47
2021/03/05 14:18:20;;;;;;;6.55;1.05;;;;;;;;;;5072779;28;20110;-48
2021/03/05 14:20:46;;;;;;;1.10;0.63;;;;;;;;;;5071214;28;20040;-49
2021/03/05 14:23:13;;;;;;;0.47;0.38;;;;;;;;;;5070134;28;20017;-48
2021/03/05 14:25:39;;;;;;;0.13;0.13;;;;;;;;;;5071328;28;20115;-47
2021/03/05 14:28:07;;;;;;;1.45;0.47;;;;;;;;;;5071161;28;20091;-46
2021/03/05 14:30:33;;;;;;;0.30;0.30;;;;;;;;;;5073107;28;20135;-51
2021/03/05 14:32:59;;;;;;;1.55;0.60;;;;;;;;;;5071688;28;20078;-49
2021/03/05 14:35:25;;;;;;;2.47;0.75;;;;;;;;;;5070939;28;20035;-47
2021/03/05 14:37:51;;;;;;;1.00;0.45;;;;;;;;;;5071022;28;20027;-51
2021/03/05 14:40:17;;;;;;;1.10;0.98;;;;;;;;;;5071056;28;20038;-46
2021/03/05 14:42:44;;;;;;;6.53;1.08;;;;;;;;;;5071107;28;20051;-47
2021/03/05 14:45:11;;;;;;;4.22;2.40;;;;;;;;;;5071788;28;20033;-48
2021/03/05 14:47:38;;;;;;;1.55;0.95;;;;;;;;;;5072177;28;20024;-47
2021/03/05 14:50:04;;;;;;;1.60;0.63;;;;;;;;;;5064108;28;20639;-46
2021/03/05 14:52:30;;;;;;;0.95;0.43;;;;;;;;;;5071474;28;20028;-48
2021/03/05 14:54:56;;;;;;;0.65;0.65;;;;;;;;;;5070548;28;20441;-51
2021/03/05 14:57:23;;;;;;;0.20;0.20;;;;;;;;;;5073688;28;20442;-49
2021/03/05 14:59:49;;;;;;;1.35;1.05;;;;;;;;;;5070473;28;20044;-47
2021/03/05 15:02:15;;;;;;;4.40;1.80;;;;;;;;;;5069997;28;20021;-46
2021/03/05 15:04:41;;;;;;;0.35;0.30;;;;;;;;;;5068994;28;20024;-47
2021/03/05 15:07:09;;;;;;;1.90;1.15;;;;;;;;;;5072405;28;20027;-48
2021/03/05 15:09:35;;;;;;;0.30;0.28;;;;;;;;;;5072839;28;20043;-48
2021/03/05 15:12:01;;;;;;;1.17;0.65;;;;;;;;;;5071635;28;20024;-48
2021/03/05 15:14:27;;;;;;;1.52;1.00;;;;;;;;;;5069967;28;20048;-49
2021/03/05 15:16:53;;;;;;;0.30;0.30;;;;;;;;;;5070391;28;20046;-48
2021/03/05 15:19:20;;;;;;;0.50;0.50;;;;;;;;;;5070065;28;20567;-51
2021/03/05 15:21:46;;;;;;;2.67;1.30;;;;;;;;;;5071138;28;20032;-46
2021/03/05 15:24:12;;;;;;;0.90;0.85;;;;;;;;;;5072585;28;20108;-52
2021/03/05 15:26:38;;;;;;;2.80;0.63;;;;;;;;;;5068951;28;20094;-47
2021/03/05 15:29:04;;;;;;;2.30;1.02;;;;;;;;;;5069641;28;20036;-48
2021/03/05 15:31:30;;;;;;;3.53;1.02;;;;;;;;;;5069975;28;20055;-48
2021/03/05 15:33:57;;;;;;;3.22;1.98;;;;;;;;;;5070117;28;20024;-47
2021/03/05 15:36:23;;;;;;;4.45;1.30;;;;;;;;;;5081596;28;20031;-54
2021/03/05 15:38:49;;;;;;;2.88;1.15;;;;;;;;;;5072192;28;20025;-51
2021/03/05 15:41:15;;;;;;;0.90;0.80;;;;;;;;;;5069912;28;20028;-46
2021/03/05 15:43:41;;;;;;;0.40;0.32;;;;;;;;;;5080889;28;20481;-47
2021/03/05 15:46:07;;;;;;;10.80;2.40;;;;;;;;;;5078057;28;20028;-48
2021/03/05 15:48:33;;;;;;;5.55;2.13;;;;;;;;;;5079424;28;20027;-46
2021/03/05 15:50:59;;;;;;;10.27;2.08;;;;;;;;;;5079206;28;20145;-51
2021/03/05 15:53:27;;;;;;;2.10;1.05;;;;;;;;;;5069828;28;20036;-49
2021/03/05 15:55:53;;;;;;;1.70;0.85;;;;;;;;;;5069741;28;20532;-47
2021/03/05 15:58:19;;;;;;;4.18;1.13;;;;;;;;;;5071705;28;20031;-46
2021/03/05 16:00:45;;;;;;;3.17;1.35;;;;;;;;;;5069926;28;20051;-46
2021/03/05 16:03:14;;;;;;;0.90;0.90;;;;;;;;;;5068437;28;20025;-50
2021/03/05 16:05:40;;;;;;;0.52;0.52;;;;;;;;;;5059140;28;20021;-51
2021/03/05 16:08:06;;;;;;;1.05;0.65;;;;;;;;;;5055827;28;20027;-47
2021/03/05 16:10:32;;;;;;;1.05;0.95;;;;;;;;;;5055761;28;20025;-48
2021/03/05 16:12:59;;;;;;;1.48;1.13;;;;;;;;;;5052985;28;20464;-49
2021/03/05 16:15:25;;;;;;;4.45;1.80;;;;;;;;;;5055372;28;20052;-47
2021/03/05 16:17:51;;;;;;;1.08;0.73;;;;;;;;;;5055960;28;20025;-47
2021/03/05 16:20:17;;;;;;;1.38;1.00;;;;;;;;;;5054734;28;20037;-46
2021/03/05 16:22:43;;;;;;;2.17;0.77;;;;;;;;;;5054827;28;20087;-48
2021/03/05 16:25:10;;;;;;;5.45;3.70;;;;;;;;;;5054370;28;20139;-51
2021/03/05 16:27:37;;;;;;;1.92;1.13;;;;;;;;;;5051133;28;20021;-47
2021/03/05 16:30:04;;;;;;;1.75;0.90;;;;;;;;;;5056511;28;20036;-50
2021/03/05 16:32:30;;;;;;;3.05;1.58;;;;;;;;;;5055071;28;20095;-52
2021/03/05 16:34:56;;;;;;;1.30;1.05;;;;;;;;;;5053470;28;20075;-48
2021/03/05 16:37:22;;;;;;;0.35;0.35;;;;;;;;;;5056278;28;20579;-48
2021/03/05 16:39:50;;;;;;;1.05;0.70;;;;;;;;;;5053309;28;20037;-48
2021/03/05 16:42:16;;;;;;;4.13;0.75;;;;;;;;;;5053357;28;20483;-51
2021/03/05 16:44:42;;;;;;;4.72;1.10;;;;;;;;;;5053714;28;20071;-47
2021/03/05 16:47:08;;;;;;;0.63;0.50;;;;;;;;;;5054418;28;20636;-46
2021/03/05 16:49:35;;;;;;;2.33;1.98;;;;;;;;;;5053794;28;20029;-51
2021/03/05 16:52:02;;;;;;;6.20;1.33;;;;;;;;;;5053721;28;20419;-48
2021/03/05 16:54:28;;;;;;;0.40;0.40;;;;;;;;;;5061589;28;20021;-49
2021/03/05 16:56:55;;;;;;;1.15;0.73;;;;;;;;;;5065072;28;20154;-49
2021/03/05 16:59:21;;;;;;;3.35;0.90;;;;;;;;;;5061486;28;20536;-50
2021/03/05 17:01:47;;;;;;;1.48;0.40;;;;;;;;;;5060349;28;20154;-51
2021/03/05 17:04:14;;;;;;;3.75;0.52;;;;;;;;;;5063047;28;20036;-52
2021/03/05 17:06:40;;;;;;;0.40;0.40;;;;;;;;;;5063155;28;20701;-48
2021/03/05 17:09:06;;;;;;;1.92;0.63;;;;;;;;;;5062507;28;20043;-48
2021/03/05 17:11:32;;;;;;;0.30;0.30;;;;;;;;;;5062514;28;20044;-47
2021/03/05 17:13:58;;;;;;;1.80;0.65;;;;;;;;;;5057809;28;20033;-48
2021/03/05 17:16:25;;;;;;;1.50;0.90;;;;;;;;;;5064615;28;20029;-49
2021/03/05 17:18:51;;;;;;;1.10;0.80;;;;;;;;;;5067979;28;20024;-47
2021/03/05 17:21:17;;;;;;;5.20;1.08;;;;;;;;;;5066042;28;20067;-48
2021/03/05 17:23:43;;;;;;;0.40;0.40;;;;;;;;;;5052598;28;20435;-46
2021/03/05 17:26:09;;;;;;;0.20;0.20;;;;;;;;;;5056794;28;20035;-51
2021/03/05 17:28:35;;;;;;;0.32;0.32;;;;;;;;;;5060381;28;20400;-47
2021/03/05 17:31:02;;;;;;;0.93;0.57;;;;;;;;;;5067251;28;20573;-51
2021/03/05 17:33:29;;;;;;;1.65;1.00;;;;;;;;;;5054522;28;20021;-48
2021/03/05 17:35:55;;;;;;;0.20;0.20;;;;;;;;;;5066067;28;20032;-50
2021/03/05 17:38:21;;;;;;;0.38;0.38;;;;;;;;;;5074624;28;20033;-51
2021/03/05 17:40:48;;;;;;;2.95;0.57;;;;;;;;;;5064999;28;20021;-50
2021/03/05 17:43:14;;;;;;;1.17;0.40;;;;;;;;;;5054114;28;20025;-50
2021/03/05 17:45:40;;;;;;;2.80;1.70;;;;;;;;;;5053771;28;20021;-50
2021/03/05 17:48:06;;;;;;;0.82;0.35;;;;;;;;;;5055557;28;20029;-50
2021/03/05 17:50:32;;;;;;;0.95;0.35;;;;;;;;;;5056317;28;20044;-51
2021/03/05 17:52:59;;;;;;;1.63;0.63;;;;;;;;;;5054988;28;20029;-52
2021/03/05 17:55:25;;;;;;;0.10;0.10;;;;;;;;;;5055441;28;20024;-50
2021/03/05 17:57:52;;;;;;;0.82;0.82;;;;;;;;;;5052030;28;20019;-51
2021/03/05 18:00:18;;;;;;;1.27;0.93;;;;;;;;;;5069535;28;20049;-51
2021/03/05 18:02:44;;;;;;;0.20;0.20;;;;;;;;;;5067739;28;20112;-52
2021/03/05 18:05:11;;;;;;;0.60;0.60;;;;;;;;;;5067377;28;20035;-48
2021/03/05 18:07:37;;;;;;;0.20;0.20;;;;;;;;;;5068483;28;20040;-50
2021/03/05 18:10:03;;;;;;;0.30;0.30;;;;;;;;;;5066173;28;20047;-47
2021/03/05 18:12:29;;;;;;;2.08;0.93;;;;;;;;;;5067916;28;20936;-49
2021/03/05 18:14:55;;;;;;;0.90;0.73;;;;;;;;;;5069368;28;20038;-47
2021/03/05 18:17:21;;;;;;;0.25;0.22;;;;;;;;;;5068908;28;20020;-54
2021/03/05 18:19:48;;;;;;;5.30;1.88;;;;;;;;;;5068251;28;20028;-50
2021/03/05 18:22:14;;;;;;;4.13;1.48;;;;;;;;;;5065024;28;20458;-52
2021/03/05 18:24:40;;;;;;;0.30;0.30;;;;;;;;;;5053243;28;20075;-49
2021/03/05 18:27:06;;;;;;;1.55;0.90;;;;;;;;;;5055149;28;20025;-48
2021/03/05 18:29:32;;;;;;;0.85;0.85;;;;;;;;;;5055831;28;20099;-50
2021/03/05 18:31:58;;;;;;;0.40;0.40;;;;;;;;;;5053925;28;20026;-49
2021/03/05 18:34:25;;;;;;;1.13;1.02;;;;;;;;;;5067170;28;20033;-48
2021/03/05 18:36:51;;;;;;;0.40;0.40;;;;;;;;;;5052050;28;20506;-50
2021/03/05 18:39:17;;;;;;;3.63;1.08;;;;;;;;;;5054480;28;20503;-47
2021/03/05 18:41:43;;;;;;;0.30;0.30;;;;;;;;;;5055715;28;20033;-47
2021/03/05 18:44:09;;;;;;;3.42;1.98;;;;;;;;;;5055901;28;20522;-49
2021/03/05 18:46:36;;;;;;;2.42;0.40;;;;;;;;;;5055759;28;20039;-47
2021/03/05 18:49:02;;;;;;;1.25;1.15;;;;;;;;;;5051659;28;20071;-47
2021/03/05 18:51:28;;;;;;;0.82;0.60;;;;;;;;;;5053768;28;20032;-47
2021/03/05 18:53:55;;;;;;;1.58;0.70;;;;;;;;;;5067949;28;20115;-52
2021/03/05 18:56:22;;;;;;;6.90;1.52;;;;;;;;;;5073976;28;20028;-48
2021/03/05 18:58:48;;;;;;;4.05;1.15;;;;;;;;;;5079145;28;20036;-56
2021/03/05 19:01:14;;;;;;;0.47;0.47;;;;;;;;;;5069980;28;20028;-49
2021/03/05 19:03:40;;;;;;;0.20;0.20;;;;;;;;;;5066448;28;20079;-49
2021/03/05 19:06:07;;;;;;;1.95;0.85;;;;;;;;;;5065706;28;20020;-50
2021/03/05 19:08:33;;;;;;;1.65;1.05;;;;;;;;;;5073592;28;20020;-55
2021/03/05 19:10:59;;;;;;;0.60;0.60;;;;;;;;;;5071490;28;20051;-51
2021/03/05 19:13:25;;;;;;;7.80;1.40;;;;;;;;;;5062503;28;20036;-49
2021/03/05 19:15:52;;;;;;;2.95;0.35;;;;;;;;;;5057960;28;20028;-51
2021/03/05 19:18:18;;;;;;;0.45;0.32;;;;;;;;;;5058241;28;20082;-49
2021/03/05 19:20:44;;;;;;;0.10;0.10;;;;;;;;;;5058077;28;20475;-50
2021/03/05 19:23:10;;;;;;;0.80;0.43;;;;;;;;;;5056188;28;20505;-49
2021/03/05 19:25:36;;;;;;;0.30;0.30;;;;;;;;;;5055002;28;20119;-51
2021/03/05 19:28:03;;;;;;;0.73;0.73;;;;;;;;;;5059590;28;20513;-48
2021/03/05 19:30:29;;;;;;;0.90;0.57;;;;;;;;;;5057269;28;20485;-50
2021/03/05 19:32:55;;;;;;;5.15;1.23;;;;;;;;;;5065926;28;20065;-49
2021/03/05 19:35:22;;;;;;;1.65;1.00;;;;;;;;;;5059604;28;20033;-52
2021/03/05 19:37:48;;;;;;;0.68;0.68;;;;;;;;;;5055319;28;20587;-51
2021/03/05 19:40:14;;;;;;;2.70;1.63;;;;;;;;;;5054959;28;20028;-49
2021/03/05 19:42:41;;;;;;;1.92;0.85;;;;;;;;;;5061093;28;20063;-47
2021/03/05 19:45:07;;;;;;;7.07;1.20;;;;;;;;;;5060285;28;20021;-47
2021/03/05 19:47:33;;;;;;;4.50;1.58;;;;;;;;;;5056925;28;20155;-49
2021/03/05 19:50:01;;;;;;;2.40;1.17;;;;;;;;;;5065163;28;20041;-49
2021/03/05 19:52:27;;;;;;;2.25;0.60;;;;;;;;;;5065779;28;20024;-50
2021/03/05 19:54:53;;;;;;;9.52;1.58;;;;;;;;;;5059115;28;20674;-46
2021/03/05 19:57:19;;;;;;;0.98;0.75;;;;;;;;;;5054990;28;20040;-47
2021/03/05 19:59:46;;;;;;;7.43;1.70;;;;;;;;;;5057174;28;20044;-52
2021/03/05 20:02:12;;;;;;;1.02;0.93;;;;;;;;;;5056214;28;20707;-49
2021/03/05 20:04:38;;;;;;;3.70;1.55;;;;;;;;;;5059017;28;20036;-48
2021/03/05 20:07:05;;;;;;;0.47;0.47;;;;;;;;;;5056527;28;20031;-47
2021/03/05 20:09:31;;;;;;;4.60;2.70;;;;;;;;;;5054071;28;20036;-52
2021/03/05 20:11:57;;;;;;;6.22;1.67;;;;;;;;;;5059118;28;20452;-47
2021/03/05 20:14:24;;;;;;;0.20;0.20;;;;;;;;;;5052682;28;20033;-56
2021/03/05 20:16:54;;;;;;;4.07;1.20;;;;;;;;;;5058973;28;20020;-47
2021/03/05 20:19:20;;;;;;;1.25;0.30;;;;;;;;;;5056266;28;20402;-49
2021/03/05 20:21:47;;;;;;;2.00;1.40;;;;;;;;;;5065759;28;20044;-46
2021/03/05 20:24:13;;;;;;;1.30;0.68;;;;;;;;;;5057946;28;20020;-49
2021/03/05 20:26:39;;;;;;;6.45;1.52;;;;;;;;;;5086508;28;20037;-49
2021/03/05 20:29:06;;;;;;;4.75;1.40;;;;;;;;;;5052098;28;20041;-48
2021/03/05 20:31:32;;;;;;;0.40;0.40;;;;;;;;;;5053266;28;20070;-48
2021/03/05 20:33:59;;;;;;;4.95;0.95;;;;;;;;;;5067988;28;20033;-51
2021/03/05 20:36:25;;;;;;;0.25;0.25;;;;;;;;;;5062223;28;20029;-49
2021/03/05 20:38:52;;;;;;;2.90;1.75;;;;;;;;;;5067835;28;20490;-49
2021/03/05 20:41:18;;;;;;;0.52;0.52;;;;;;;;;;5066703;28;20035;-48
2021/03/05 20:43:44;;;;;;;5.63;1.40;;;;;;;;;;5062208;28;20127;-49
2021/03/05 20:46:11;;;;;;;0.80;0.80;;;;;;;;;;5061885;28;20029;-46